Time;durP1;ratioP1;P1;durP2;ratioP2;P2;SDS_P1;SDS_P2;PMS_P1;PMS_P2;Temp;Humidity;BMP_temperature;BMP_pressure;BME280_temperature;BME280_humidity;BME280_pressure;Samples;Min_cycle;Max_cycle;Signal;HPM_P1;HPM_P2
2024/02/05 00:00:06;;;;;;;15.48;4.00;;;;;;;;;;5122294;28;20051;-74
2024/02/05 00:02:43;;;;;;;10.80;4.03;;;;;;;;;;5126920;27;20055;-74
2024/02/05 00:05:14;;;;;;;12.85;4.32;;;;;;;;;;5102219;28;20047;-75
2024/02/05 00:07:44;;;;;;;8.73;4.30;;;;;;;;;;5104415;28;20046;-74
2024/02/05 00:10:15;;;;;;;11.27;4.15;;;;;;;;;;5101724;28;20054;-72
2024/02/05 00:12:48;;;;;;;21.02;4.82;;;;;;;;;;5102444;28;20410;-76
2024/02/05 00:15:18;;;;;;;8.07;3.70;;;;;;;;;;5102073;28;20514;-73
2024/02/05 00:17:52;;;;;;;9.95;3.95;;;;;;;;;;5084398;28;20050;-76
2024/02/05 00:20:27;;;;;;;9.55;3.80;;;;;;;;;;5102520;28;20055;-76
2024/02/05 00:22:59;;;;;;;12.02;3.95;;;;;;;;;;5105930;28;20044;-75
2024/02/05 00:25:30;;;;;;;12.38;4.20;;;;;;;;;;5106073;28;20405;-75
2024/02/05 00:28:00;;;;;;;12.25;3.60;;;;;;;;;;5106576;28;20537;-75
2024/02/05 00:30:30;;;;;;;6.07;3.40;;;;;;;;;;5105123;28;20059;-76
2024/02/05 00:33:02;;;;;;;12.57;3.83;;;;;;;;;;5105923;28;20052;-75
2024/02/05 00:35:32;;;;;;;9.05;3.55;;;;;;;;;;5105600;28;20047;-73
2024/02/05 00:38:03;;;;;;;11.98;3.33;;;;;;;;;;5105904;28;20044;-75
2024/02/05 00:40:35;;;;;;;8.77;3.28;;;;;;;;;;5106526;28;20047;-74
2024/02/05 00:43:08;;;;;;;10.25;3.30;;;;;;;;;;5105940;28;20494;-75
2024/02/05 00:45:39;;;;;;;7.03;3.35;;;;;;;;;;5105785;28;20048;-76
2024/02/05 00:48:11;;;;;;;10.35;3.30;;;;;;;;;;5104011;28;20055;-83
2024/02/05 00:50:42;;;;;;;6.60;3.20;;;;;;;;;;5086609;28;20051;-77
2024/02/05 00:53:13;;;;;;;6.65;3.25;;;;;;;;;;5105725;28;20907;-77
2024/02/05 00:55:44;;;;;;;4.57;3.00;;;;;;;;;;5105600;28;20046;-73
2024/02/05 00:58:15;;;;;;;8.68;3.10;;;;;;;;;;5105277;28;20047;-74
2024/02/05 01:00:46;;;;;;;6.18;3.38;;;;;;;;;;5104253;28;20510;-74
2024/02/05 01:03:19;;;;;;;4.90;2.53;;;;;;;;;;5105934;28;20058;-75
2024/02/05 01:05:55;;;;;;;4.90;2.47;;;;;;;;;;5106215;28;20047;-73
2024/02/05 01:08:27;;;;;;;5.07;2.33;;;;;;;;;;5106012;28;20047;-74
2024/02/05 01:10:59;;;;;;;4.55;2.58;;;;;;;;;;5105754;28;20055;-75
2024/02/05 01:13:31;;;;;;;7.88;2.50;;;;;;;;;;5105585;28;20046;-75
2024/02/05 01:16:04;;;;;;;8.45;2.53;;;;;;;;;;5105189;28;20051;-73
2024/02/05 01:18:36;;;;;;;7.97;2.58;;;;;;;;;;5104414;28;20062;-73
2024/02/05 01:21:10;;;;;;;9.75;2.70;;;;;;;;;;5103110;28;20580;-74
2024/02/05 01:23:41;;;;;;;5.57;2.90;;;;;;;;;;5103899;28;20032;-75
2024/02/05 01:26:11;;;;;;;7.10;2.85;;;;;;;;;;5103929;28;20422;-75
2024/02/05 01:28:41;;;;;;;4.70;2.45;;;;;;;;;;5103482;28;20070;-75
2024/02/05 01:31:12;;;;;;;7.15;2.40;;;;;;;;;;5102487;28;20048;-75
2024/02/05 01:33:43;;;;;;;9.52;2.80;;;;;;;;;;5103063;28;20047;-75
2024/02/05 01:36:13;;;;;;;7.40;3.17;;;;;;;;;;5104772;28;20048;-75
2024/02/05 01:38:45;;;;;;;6.00;2.90;;;;;;;;;;5102646;28;20050;-75
2024/02/05 01:41:16;;;;;;;6.85;2.58;;;;;;;;;;5104069;28;20043;-74
2024/02/05 01:43:47;;;;;;;7.07;2.90;;;;;;;;;;5103847;28;20643;-74
2024/02/05 01:46:22;;;;;;;8.10;3.15;;;;;;;;;;5104226;28;20048;-76
2024/02/05 01:48:59;;;;;;;6.13;3.58;;;;;;;;;;5104382;28;20522;-76
2024/02/05 01:51:37;;;;;;;4.63;3.20;;;;;;;;;;5104376;28;20406;-74
2024/02/05 01:54:09;;;;;;;6.50;3.00;;;;;;;;;;5104799;28;20052;-75
2024/02/05 01:56:40;;;;;;;10.75;3.13;;;;;;;;;;5104399;28;20048;-75
2024/02/05 01:59:11;;;;;;;7.43;3.00;;;;;;;;;;5104676;28;20055;-76
2024/02/05 02:01:44;;;;;;;5.18;3.22;;;;;;;;;;5105022;28;20406;-75
2024/02/05 02:04:15;;;;;;;7.03;2.90;;;;;;;;;;5103595;28;20044;-75
2024/02/05 02:06:46;;;;;;;5.93;3.00;;;;;;;;;;5104166;28;20040;-73
2024/02/05 02:09:19;;;;;;;7.63;3.00;;;;;;;;;;5102237;28;20499;-74
2024/02/05 02:11:50;;;;;;;7.72;2.60;;;;;;;;;;5104148;28;20048;-75
2024/02/05 02:14:22;;;;;;;7.18;3.13;;;;;;;;;;5104369;28;20055;-73
2024/02/05 02:16:54;;;;;;;4.72;3.20;;;;;;;;;;5104215;28;20046;-73
2024/02/05 02:19:57;;;;;;;5.93;3.15;;;;;;;;;;5101184;28;20039;-76
2024/02/05 02:22:41;;;;;;;7.10;3.10;;;;;;;;;;5061406;28;20051;-74
2024/02/05 02:25:12;;;;;;;7.43;2.55;;;;;;;;;;5119118;27;20104;-74
2024/02/05 02:27:44;;;;;;;7.18;2.92;;;;;;;;;;5103797;28;20044;-75
2024/02/05 02:30:17;;;;;;;6.60;2.90;;;;;;;;;;5103393;28;20048;-74
2024/02/05 02:33:17;;;;;;;9.18;3.00;;;;;;;;;;5102499;28;20051;-75
2024/02/05 02:36:00;;;;;;;6.28;2.42;;;;;;;;;;5103954;28;20039;-74
2024/02/05 02:38:44;;;;;;;5.40;3.05;;;;;;;;;;5102057;28;20051;-72
2024/02/05 02:41:22;;;;;;;5.72;2.67;;;;;;;;;;5100608;28;20056;-75
2024/02/05 02:44:02;;;;;;;4.65;3.13;;;;;;;;;;5100254;28;20051;-73
2024/02/05 02:46:33;;;;;;;8.07;3.28;;;;;;;;;;5100830;28;20044;-72
2024/02/05 02:49:03;;;;;;;7.68;3.58;;;;;;;;;;5101018;28;21199;-75
2024/02/05 02:51:34;;;;;;;4.97;2.67;;;;;;;;;;5100783;28;20044;-76
2024/02/05 02:54:08;;;;;;;5.80;2.95;;;;;;;;;;5100669;28;20076;-73
2024/02/05 02:56:40;;;;;;;8.75;2.95;;;;;;;;;;5101124;28;20048;-74
2024/02/05 02:59:11;;;;;;;5.85;3.35;;;;;;;;;;5100324;28;20506;-73
2024/02/05 03:01:42;;;;;;;6.28;2.92;;;;;;;;;;5101039;28;20488;-73
2024/02/05 03:04:15;;;;;;;7.15;3.50;;;;;;;;;;5101524;28;20430;-73
2024/02/05 03:06:46;;;;;;;6.00;2.50;;;;;;;;;;5101043;28;20074;-75
2024/02/05 03:09:16;;;;;;;8.63;2.63;;;;;;;;;;5100159;28;20043;-73
2024/02/05 03:11:46;;;;;;;6.75;2.85;;;;;;;;;;5100124;28;20055;-73
2024/02/05 03:14:17;;;;;;;6.88;2.95;;;;;;;;;;5100091;28;20054;-75
2024/02/05 03:16:47;;;;;;;6.28;3.47;;;;;;;;;;5099977;28;20671;-74
2024/02/05 03:19:18;;;;;;;6.93;3.08;;;;;;;;;;5099571;28;20047;-74
2024/02/05 03:21:48;;;;;;;4.30;3.17;;;;;;;;;;5099947;28;20039;-75
2024/02/05 03:24:19;;;;;;;7.15;3.67;;;;;;;;;;5099900;28;20051;-75
2024/02/05 03:26:51;;;;;;;10.05;3.22;;;;;;;;;;5099895;28;20040;-74
2024/02/05 03:29:22;;;;;;;11.43;3.33;;;;;;;;;;5100361;28;20047;-73
2024/02/05 03:31:53;;;;;;;8.57;2.92;;;;;;;;;;5099824;28;20043;-74
2024/02/05 03:34:23;;;;;;;9.68;3.25;;;;;;;;;;5099732;28;20046;-74
2024/02/05 03:36:54;;;;;;;7.30;2.95;;;;;;;;;;5099331;28;20047;-73
2024/02/05 03:39:26;;;;;;;9.40;3.38;;;;;;;;;;5100007;28;20492;-75
2024/02/05 03:41:56;;;;;;;4.28;3.20;;;;;;;;;;5100264;28;20403;-75
2024/02/05 03:44:26;;;;;;;5.20;3.42;;;;;;;;;;5099771;28;20633;-75
2024/02/05 03:46:57;;;;;;;6.30;3.35;;;;;;;;;;5100291;28;20402;-76
2024/02/05 03:49:28;;;;;;;5.38;3.05;;;;;;;;;;5100067;28;20047;-75
2024/02/05 03:51:58;;;;;;;8.35;3.30;;;;;;;;;;5099832;28;20051;-74
2024/02/05 03:54:29;;;;;;;7.28;3.10;;;;;;;;;;5099147;28;20040;-76
2024/02/05 03:57:00;;;;;;;5.25;2.92;;;;;;;;;;5103866;28;20047;-75
2024/02/05 03:59:31;;;;;;;4.38;3.63;;;;;;;;;;5102588;28;20044;-75
2024/02/05 04:02:06;;;;;;;8.38;3.90;;;;;;;;;;5103730;28;20059;-75
2024/02/05 04:04:37;;;;;;;5.47;3.28;;;;;;;;;;5103946;28;20043;-75
2024/02/05 04:07:08;;;;;;;5.47;3.00;;;;;;;;;;5104307;28;20490;-72
2024/02/05 04:09:38;;;;;;;7.93;3.03;;;;;;;;;;5103958;28;20054;-75
2024/02/05 04:12:09;;;;;;;6.95;3.55;;;;;;;;;;5103030;28;20806;-74
2024/02/05 04:14:39;;;;;;;6.20;2.97;;;;;;;;;;5103752;28;20508;-74
2024/02/05 04:17:10;;;;;;;4.43;2.92;;;;;;;;;;5103172;28;20032;-75
2024/02/05 04:19:44;;;;;;;7.07;2.70;;;;;;;;;;5103715;28;20105;-75
2024/02/05 04:22:16;;;;;;;10.88;3.65;;;;;;;;;;5104267;28;20077;-74
2024/02/05 04:24:47;;;;;;;9.95;3.65;;;;;;;;;;5103889;28;20058;-75
2024/02/05 04:27:17;;;;;;;7.70;3.00;;;;;;;;;;5103077;28;20059;-76
2024/02/05 04:29:49;;;;;;;7.45;3.10;;;;;;;;;;5103543;28;20052;-74
2024/02/05 04:32:19;;;;;;;8.60;3.20;;;;;;;;;;5103594;28;20500;-75
2024/02/05 04:34:50;;;;;;;14.63;3.40;;;;;;;;;;5103546;28;20043;-75
2024/02/05 04:37:21;;;;;;;6.45;3.35;;;;;;;;;;5103083;28;20075;-75
2024/02/05 04:39:52;;;;;;;8.30;3.55;;;;;;;;;;5103099;28;20048;-72
2024/02/05 04:42:22;;;;;;;8.77;4.40;;;;;;;;;;5102826;28;20386;-75
2024/02/05 04:44:54;;;;;;;7.40;3.67;;;;;;;;;;5103584;28;20051;-75
2024/02/05 04:47:24;;;;;;;8.75;3.47;;;;;;;;;;5103105;28;20055;-73
2024/02/05 04:49:56;;;;;;;9.38;3.42;;;;;;;;;;5102780;28;20055;-75
2024/02/05 04:52:27;;;;;;;5.28;3.20;;;;;;;;;;5103078;28;20047;-73
2024/02/05 04:54:57;;;;;;;8.82;3.60;;;;;;;;;;5102767;28;20056;-74
2024/02/05 04:57:28;;;;;;;7.57;3.70;;;;;;;;;;5102753;28;20047;-75
2024/02/05 04:59:59;;;;;;;6.30;2.90;;;;;;;;;;5102095;28;20069;-75
2024/02/05 05:02:31;;;;;;;7.82;4.00;;;;;;;;;;5102836;28;20414;-74
2024/02/05 05:05:01;;;;;;;5.85;3.22;;;;;;;;;;5102824;28;20054;-73
2024/02/05 05:07:31;;;;;;;7.13;3.10;;;;;;;;;;5101434;28;20059;-75
2024/02/05 05:10:03;;;;;;;6.38;3.10;;;;;;;;;;5102472;28;20046;-73
2024/02/05 05:12:35;;;;;;;7.63;3.65;;;;;;;;;;5102496;28;20039;-76
2024/02/05 05:15:05;;;;;;;9.27;3.20;;;;;;;;;;5102736;28;20052;-75
2024/02/05 05:17:36;;;;;;;10.50;3.35;;;;;;;;;;5102485;28;20093;-74
2024/02/05 05:20:08;;;;;;;10.85;3.10;;;;;;;;;;5102389;28;20055;-73
2024/02/05 05:22:39;;;;;;;5.50;3.42;;;;;;;;;;5102442;28;20040;-75
2024/02/05 05:25:10;;;;;;;8.10;3.50;;;;;;;;;;5100672;28;20056;-76
2024/02/05 05:27:40;;;;;;;8.93;3.30;;;;;;;;;;5102497;28;20048;-75
2024/02/05 05:30:11;;;;;;;7.10;4.13;;;;;;;;;;5102177;28;20052;-75
2024/02/05 05:32:42;;;;;;;8.73;3.60;;;;;;;;;;5102009;28;20066;-75
2024/02/05 05:35:12;;;;;;;8.55;3.60;;;;;;;;;;5101920;28;20043;-75
2024/02/05 05:37:44;;;;;;;4.78;2.95;;;;;;;;;;5101877;28;20050;-74
2024/02/05 05:40:14;;;;;;;6.00;3.45;;;;;;;;;;5101480;28;20094;-75
2024/02/05 05:42:44;;;;;;;6.10;3.38;;;;;;;;;;5101982;28;20043;-73
2024/02/05 05:45:15;;;;;;;5.78;3.15;;;;;;;;;;5102347;28;20070;-74
2024/02/05 05:47:46;;;;;;;5.93;3.33;;;;;;;;;;5101357;28;20048;-74
2024/02/05 05:50:17;;;;;;;8.68;4.10;;;;;;;;;;5101732;28;20110;-74
2024/02/05 05:52:48;;;;;;;5.57;3.20;;;;;;;;;;5101278;28;20043;-73
2024/02/05 05:55:20;;;;;;;6.57;3.13;;;;;;;;;;5101963;28;20070;-74
2024/02/05 05:57:51;;;;;;;8.32;3.38;;;;;;;;;;5101582;28;20048;-74
2024/02/05 06:00:22;;;;;;;5.22;3.97;;;;;;;;;;5101809;28;20611;-72
2024/02/05 06:02:53;;;;;;;4.70;3.22;;;;;;;;;;5101312;28;20058;-74
2024/02/05 06:05:24;;;;;;;5.55;3.85;;;;;;;;;;5101586;28;20715;-73
2024/02/05 06:07:55;;;;;;;9.88;3.85;;;;;;;;;;5101979;28;20515;-74
2024/02/05 06:10:26;;;;;;;9.45;3.10;;;;;;;;;;5101507;28;20051;-73
2024/02/05 06:12:58;;;;;;;7.88;3.47;;;;;;;;;;5101084;28;20044;-75
2024/02/05 06:15:28;;;;;;;5.22;3.40;;;;;;;;;;5101627;28;20047;-73
2024/02/05 06:17:58;;;;;;;7.00;3.28;;;;;;;;;;5100969;28;20070;-73
2024/02/05 06:20:29;;;;;;;6.28;3.40;;;;;;;;;;5099077;28;20058;-74
2024/02/05 06:23:00;;;;;;;6.10;3.40;;;;;;;;;;5099373;28;20047;-74
2024/02/05 06:25:29;;;;;;;9.30;4.05;;;;;;;;;;5099193;28;20051;-75
2024/02/05 06:28:00;;;;;;;6.05;3.40;;;;;;;;;;5101005;28;20050;-73
2024/02/05 06:30:37;;;;;;;7.90;3.35;;;;;;;;;;5101018;28;20074;-75
2024/02/05 06:33:09;;;;;;;6.90;3.53;;;;;;;;;;5100927;28;20410;-74
2024/02/05 06:35:40;;;;;;;6.15;2.70;;;;;;;;;;5098623;28;20059;-73
2024/02/05 06:38:10;;;;;;;7.10;3.83;;;;;;;;;;5100833;28;20425;-74
2024/02/05 06:40:42;;;;;;;5.43;3.88;;;;;;;;;;5100574;28;20090;-73
2024/02/05 06:43:13;;;;;;;11.57;3.80;;;;;;;;;;5100435;28;20047;-76
2024/02/05 06:45:44;;;;;;;5.47;2.90;;;;;;;;;;5100753;28;20043;-74
2024/02/05 06:48:14;;;;;;;6.85;3.60;;;;;;;;;;5100053;28;20067;-74
2024/02/05 06:50:45;;;;;;;8.20;3.08;;;;;;;;;;5100933;28;20070;-73
2024/02/05 06:53:15;;;;;;;7.03;3.05;;;;;;;;;;5100644;28;20074;-74
2024/02/05 06:55:46;;;;;;;7.53;3.63;;;;;;;;;;5100269;28;20043;-75
2024/02/05 06:58:19;;;;;;;6.28;3.40;;;;;;;;;;5100466;28;20491;-76
2024/02/05 07:00:49;;;;;;;6.47;3.78;;;;;;;;;;5098673;28;20110;-72
2024/02/05 07:03:21;;;;;;;12.00;3.92;;;;;;;;;;5100421;28;20055;-73
2024/02/05 07:05:53;;;;;;;11.30;3.53;;;;;;;;;;5100278;28;20054;-75
2024/02/05 07:08:23;;;;;;;8.15;3.10;;;;;;;;;;5100317;28;20094;-75
2024/02/05 07:10:54;;;;;;;6.68;2.95;;;;;;;;;;5100081;28;20517;-75
2024/02/05 07:13:25;;;;;;;5.40;3.38;;;;;;;;;;5100159;28;20066;-74
2024/02/05 07:15:57;;;;;;;7.03;3.50;;;;;;;;;;5099569;28;20047;-75
2024/02/05 07:18:28;;;;;;;6.50;3.90;;;;;;;;;;5102324;28;20054;-88
2024/02/05 07:21:04;;;;;;;15.48;3.38;;;;;;;;;;5102964;28;20044;-74
2024/02/05 07:23:35;;;;;;;;;;;;;;;;;;5103569;28;20429;-74
2024/02/05 07:26:06;;;;;;;12.40;4.05;;;;;;;;;;5102438;28;19924;-74
2024/02/05 07:28:37;;;;;;;5.45;3.05;;;;;;;;;;5103164;28;20062;-74
2024/02/05 07:31:07;;;;;;;6.13;3.28;;;;;;;;;;5102407;28;20054;-75
2024/02/05 07:33:38;;;;;;;6.70;3.10;;;;;;;;;;5108213;27;20035;-73
2024/02/05 07:36:09;;;;;;;5.82;3.45;;;;;;;;;;5122567;27;20051;-72
2024/02/05 07:38:40;;;;;;;7.72;3.80;;;;;;;;;;5123171;27;20510;-73
2024/02/05 07:41:10;;;;;;;6.45;3.25;;;;;;;;;;5123509;27;20076;-75
2024/02/05 07:43:41;;;;;;;10.00;3.92;;;;;;;;;;5122960;27;20047;-73
2024/02/05 07:46:11;;;;;;;9.63;3.28;;;;;;;;;;5122970;27;20053;-74
2024/02/05 07:48:42;;;;;;;4.82;3.17;;;;;;;;;;5122515;27;20048;-74
2024/02/05 07:51:13;;;;;;;4.65;3.22;;;;;;;;;;5123300;28;20046;-74
2024/02/05 07:53:43;;;;;;;6.47;3.22;;;;;;;;;;5123331;27;20074;-73
2024/02/05 07:56:14;;;;;;;6.60;3.38;;;;;;;;;;5123244;28;20565;-74
2024/02/05 07:58:45;;;;;;;6.75;2.80;;;;;;;;;;5122252;28;20051;-74
2024/02/05 08:01:15;;;;;;;9.38;3.30;;;;;;;;;;5122743;28;20051;-74
2024/02/05 08:03:46;;;;;;;6.95;3.25;;;;;;;;;;5121634;27;20524;-75
2024/02/05 08:06:19;;;;;;;6.13;3.20;;;;;;;;;;5121057;27;20056;-74
2024/02/05 08:08:50;;;;;;;7.50;3.17;;;;;;;;;;5122589;27;20054;-74
2024/02/05 08:11:21;;;;;;;6.72;3.33;;;;;;;;;;5121364;27;20050;-75
2024/02/05 08:13:55;;;;;;;6.85;3.30;;;;;;;;;;5121847;28;20498;-76
2024/02/05 08:16:26;;;;;;;7.03;3.50;;;;;;;;;;5122741;28;20043;-73
2024/02/05 08:18:57;;;;;;;5.38;3.42;;;;;;;;;;5122868;28;20043;-73
2024/02/05 08:21:28;;;;;;;11.45;3.35;;;;;;;;;;5123385;27;20050;-75
2024/02/05 08:23:59;;;;;;;7.35;3.63;;;;;;;;;;5123434;27;20054;-74
2024/02/05 08:26:30;;;;;;;5.63;3.58;;;;;;;;;;5122578;27;20043;-75
2024/02/05 08:29:02;;;;;;;5.40;3.33;;;;;;;;;;5121221;28;20054;-76
2024/02/05 08:31:36;;;;;;;4.63;3.42;;;;;;;;;;5122594;28;20058;-74
2024/02/05 08:34:06;;;;;;;7.68;3.30;;;;;;;;;;5122494;27;20058;-74
2024/02/05 08:36:37;;;;;;;8.23;3.67;;;;;;;;;;5120525;27;20062;-76
2024/02/05 08:39:10;;;;;;;9.50;3.70;;;;;;;;;;5122785;28;20516;-76
2024/02/05 08:41:41;;;;;;;6.47;3.60;;;;;;;;;;5123575;27;20769;-74
2024/02/05 08:44:12;;;;;;;7.80;3.92;;;;;;;;;;5125636;27;20050;-75
2024/02/05 08:46:42;;;;;;;9.50;4.05;;;;;;;;;;5126816;27;20050;-74
2024/02/05 08:49:13;;;;;;;16.42;4.47;;;;;;;;;;5126345;27;20039;-75
2024/02/05 08:51:44;;;;;;;8.35;5.13;;;;;;;;;;5124814;27;20419;-74
2024/02/05 08:54:15;;;;;;;6.00;3.55;;;;;;;;;;5126267;27;20043;-73
2024/02/05 08:56:45;;;;;;;7.35;3.80;;;;;;;;;;5126325;27;20109;-73
2024/02/05 08:59:16;;;;;;;6.15;3.53;;;;;;;;;;5126315;27;20058;-76
2024/02/05 09:01:48;;;;;;;6.82;3.92;;;;;;;;;;5125358;27;20051;-74
2024/02/05 09:04:18;;;;;;;9.43;3.85;;;;;;;;;;5124067;27;20059;-74
2024/02/05 09:06:48;;;;;;;7.63;4.13;;;;;;;;;;5126133;27;20801;-73
2024/02/05 09:09:20;;;;;;;5.50;3.30;;;;;;;;;;5126723;27;20488;-74
2024/02/05 09:11:50;;;;;;;7.35;4.10;;;;;;;;;;5126627;27;20058;-73
2024/02/05 09:14:34;;;;;;;6.05;3.90;;;;;;;;;;5126322;27;20050;-72
2024/02/05 09:17:05;;;;;;;7.68;4.35;;;;;;;;;;5125736;27;20047;-75
2024/02/05 09:19:35;;;;;;;8.05;3.40;;;;;;;;;;5125253;27;20039;-76
2024/02/05 09:22:06;;;;;;;8.30;4.15;;;;;;;;;;5125401;27;20402;-75
2024/02/05 09:24:37;;;;;;;9.95;3.90;;;;;;;;;;5125044;27;20047;-73
2024/02/05 09:27:08;;;;;;;7.95;4.07;;;;;;;;;;5125185;27;20051;-73
2024/02/05 09:29:39;;;;;;;13.02;4.47;;;;;;;;;;5124933;27;20046;-74
2024/02/05 09:32:13;;;;;;;9.18;4.63;;;;;;;;;;5124178;27;20410;-74
2024/02/05 09:34:44;;;;;;;10.43;4.95;;;;;;;;;;5124926;27;20047;-75
2024/02/05 09:37:15;;;;;;;13.15;5.38;;;;;;;;;;5123440;27;20065;-75
2024/02/05 09:39:46;;;;;;;12.82;5.10;;;;;;;;;;5124137;27;20128;-74
2024/02/05 09:42:16;;;;;;;11.68;4.85;;;;;;;;;;5125170;27;20058;-73
2024/02/05 09:44:50;;;;;;;8.85;4.20;;;;;;;;;;5124652;27;20138;-73
2024/02/05 09:47:23;;;;;;;10.70;4.97;;;;;;;;;;5123034;27;20055;-76
2024/02/05 09:49:57;;;;;;;9.13;4.47;;;;;;;;;;5124234;27;20532;-78
2024/02/05 09:52:30;;;;;;;13.00;4.55;;;;;;;;;;5124578;27;20046;-75
2024/02/05 09:55:01;;;;;;;10.48;4.47;;;;;;;;;;5125332;27;20047;-73
2024/02/05 09:57:32;;;;;;;7.13;4.40;;;;;;;;;;5124452;27;20051;-74
2024/02/05 10:00:02;;;;;;;16.77;4.40;;;;;;;;;;5125266;27;20054;-74
2024/02/05 10:02:35;;;;;;;8.85;3.75;;;;;;;;;;5124527;27;20506;-73
2024/02/05 10:05:11;;;;;;;10.35;4.60;;;;;;;;;;5124816;27;20050;-77
2024/02/05 10:07:46;;;;;;;12.68;4.05;;;;;;;;;;5124866;27;20046;-74
2024/02/05 10:10:20;;;;;;;18.17;3.78;;;;;;;;;;5124105;27;20047;-75
2024/02/05 10:12:53;;;;;;;25.63;4.55;;;;;;;;;;5124647;27;20051;-76
2024/02/05 10:15:24;;;;;;;20.15;3.95;;;;;;;;;;5124521;27;20054;-77
2024/02/05 10:17:55;;;;;;;26.95;5.53;;;;;;;;;;5124616;27;20831;-75
2024/02/05 10:20:36;;;;;;;10.40;4.00;;;;;;;;;;5124505;27;20054;-75
2024/02/05 10:23:08;;;;;;;19.00;4.18;;;;;;;;;;5124359;27;20604;-75
2024/02/05 10:25:39;;;;;;;17.35;4.70;;;;;;;;;;5123999;27;20043;-82
2024/02/05 10:28:10;;;;;;;17.02;5.25;;;;;;;;;;5122699;27;20051;-73
2024/02/05 10:30:41;;;;;;;11.40;4.50;;;;;;;;;;5124307;27;20066;-74
2024/02/05 10:33:19;;;;;;;15.88;4.85;;;;;;;;;;5123811;27;20047;-76
2024/02/05 10:35:54;;;;;;;11.55;5.00;;;;;;;;;;5124463;27;20840;-73
2024/02/05 10:38:28;;;;;;;13.57;4.93;;;;;;;;;;5123988;27;20062;-74
2024/02/05 10:41:01;;;;;;;8.65;3.92;;;;;;;;;;5124370;27;20568;-75
2024/02/05 10:43:31;;;;;;;8.52;4.50;;;;;;;;;;5123889;27;20512;-84
2024/02/05 10:46:02;;;;;;;10.77;5.00;;;;;;;;;;5123303;27;20042;-73
2024/02/05 10:48:33;;;;;;;8.95;6.13;;;;;;;;;;5124562;27;20387;-76
2024/02/05 10:51:04;;;;;;;14.23;5.10;;;;;;;;;;5123825;27;20042;-79
2024/02/05 10:53:36;;;;;;;10.45;4.57;;;;;;;;;;5123362;27;20047;-73
2024/02/05 10:56:09;;;;;;;8.15;3.88;;;;;;;;;;5123775;27;20039;-72
2024/02/05 10:58:41;;;;;;;8.32;4.00;;;;;;;;;;5123146;27;20058;-81
2024/02/05 11:01:16;;;;;;;8.18;4.05;;;;;;;;;;5123702;27;20035;-72
2024/02/05 11:03:49;;;;;;;15.48;4.10;;;;;;;;;;5122730;27;20043;-74
2024/02/05 11:06:21;;;;;;;6.82;4.07;;;;;;;;;;5123052;27;20090;-72
2024/02/05 11:08:53;;;;;;;11.90;4.68;;;;;;;;;;5123366;27;20497;-72
2024/02/05 11:11:24;;;;;;;11.50;4.60;;;;;;;;;;5123643;27;20058;-72
2024/02/05 11:14:00;;;;;;;10.35;4.35;;;;;;;;;;5123083;27;20050;-72
2024/02/05 11:16:30;;;;;;;;;;;;;;;;;;5123835;27;20043;-72
2024/02/05 11:19:04;;;;;;;12.20;3.83;;;;;;;;;;5121684;27;19930;-72
2024/02/05 11:21:46;;;;;;;12.63;4.05;;;;;;;;;;5121908;27;20516;-73
2024/02/05 11:24:22;;;;;;;12.95;4.97;;;;;;;;;;5123283;27;20046;-75
2024/02/05 11:26:55;;;;;;;12.55;4.28;;;;;;;;;;5123966;27;20809;-74
2024/02/05 11:29:33;;;;;;;16.98;4.50;;;;;;;;;;5123458;27;20047;-73
2024/02/05 11:32:04;;;;;;;15.90;5.57;;;;;;;;;;5122926;27;20414;-75
2024/02/05 11:34:37;;;;;;;11.82;4.53;;;;;;;;;;5123086;27;20039;-86
2024/02/05 11:37:27;;;;;;;11.85;4.13;;;;;;;;;;5121647;27;20043;-74
2024/02/05 11:40:01;;;;;;;19.00;4.30;;;;;;;;;;5122650;27;20726;-73
2024/02/05 11:42:33;;;;;;;12.60;4.65;;;;;;;;;;5123122;27;20052;-74
2024/02/05 11:45:12;;;;;;;8.80;3.90;;;;;;;;;;5122981;27;20054;-74
2024/02/05 11:47:43;;;;;;;12.07;4.50;;;;;;;;;;5123087;28;20497;-76
2024/02/05 11:50:13;;;;;;;7.97;3.58;;;;;;;;;;5122952;28;20043;-74
2024/02/05 11:52:44;;;;;;;8.60;3.97;;;;;;;;;;5123285;28;20050;-73
2024/02/05 11:55:16;;;;;;;10.98;4.13;;;;;;;;;;5123398;28;20039;-74
2024/02/05 11:57:51;;;;;;;8.85;3.78;;;;;;;;;;5123286;28;20058;-75
2024/02/05 12:00:22;;;;;;;9.25;4.28;;;;;;;;;;5122661;28;20047;-74
2024/02/05 12:02:54;;;;;;;4.68;3.92;;;;;;;;;;5123330;28;20047;-74
2024/02/05 12:05:29;;;;;;;10.00;4.03;;;;;;;;;;5122961;28;20441;-74
2024/02/05 12:08:04;;;;;;;14.32;5.15;;;;;;;;;;5120991;28;20121;-75
2024/02/05 12:10:34;;;;;;;6.95;3.80;;;;;;;;;;5120581;28;20697;-74
2024/02/05 12:13:05;;;;;;;12.13;3.60;;;;;;;;;;5122448;28;20043;-74
2024/02/05 12:15:38;;;;;;;7.70;4.00;;;;;;;;;;5123672;27;21054;-75
2024/02/05 12:18:09;;;;;;;5.07;3.20;;;;;;;;;;5126872;27;20040;-73
2024/02/05 12:20:39;;;;;;;9.20;3.80;;;;;;;;;;5126538;27;20047;-73
2024/02/05 12:23:10;;;;;;;6.57;3.63;;;;;;;;;;5127467;27;20047;-73
2024/02/05 12:25:41;;;;;;;9.98;4.43;;;;;;;;;;5127010;27;20425;-73
2024/02/05 12:28:16;;;;;;;7.32;3.92;;;;;;;;;;5126587;27;20425;-73
2024/02/05 12:30:55;;;;;;;5.25;3.35;;;;;;;;;;5126705;27;20050;-76
2024/02/05 12:33:26;;;;;;;10.77;3.70;;;;;;;;;;5126359;27;20516;-81
2024/02/05 12:36:08;;;;;;;6.90;3.50;;;;;;;;;;5126357;27;20089;-75
2024/02/05 12:38:41;;;;;;;5.75;3.55;;;;;;;;;;5126499;27;20054;-73
2024/02/05 12:41:14;;;;;;;11.77;3.88;;;;;;;;;;5125941;27;20051;-74
2024/02/05 12:43:44;;;;;;;10.07;3.90;;;;;;;;;;5126323;27;20039;-74
2024/02/05 12:46:17;;;;;;;9.35;3.80;;;;;;;;;;5126723;27;20047;-75
2024/02/05 12:48:48;;;;;;;13.05;4.78;;;;;;;;;;5126616;27;20429;-75
2024/02/05 12:51:19;;;;;;;10.13;4.10;;;;;;;;;;5126880;27;20406;-75
2024/02/05 12:53:50;;;;;;;14.32;4.10;;;;;;;;;;5126212;27;20035;-73
2024/02/05 12:56:22;;;;;;;6.63;3.45;;;;;;;;;;5126750;27;20055;-73
2024/02/05 12:58:55;;;;;;;5.38;3.80;;;;;;;;;;5124780;27;20425;-73
2024/02/05 13:01:26;;;;;;;17.17;4.72;;;;;;;;;;5126014;27;20053;-79
2024/02/05 13:03:56;;;;;;;9.07;3.47;;;;;;;;;;5126012;27;20043;-74
2024/02/05 13:06:27;;;;;;;6.75;3.63;;;;;;;;;;5125074;27;20053;-74
2024/02/05 13:09:00;;;;;;;8.15;3.35;;;;;;;;;;5124433;27;20054;-74
2024/02/05 13:11:31;;;;;;;8.82;3.58;;;;;;;;;;5125631;27;20059;-75
2024/02/05 13:14:02;;;;;;;9.82;4.53;;;;;;;;;;5126103;27;20661;-74
2024/02/05 13:16:35;;;;;;;8.05;3.40;;;;;;;;;;5125995;27;20047;-76
2024/02/05 13:19:06;;;;;;;9.57;3.45;;;;;;;;;;5125869;27;20051;-76
2024/02/05 13:21:37;;;;;;;8.15;3.33;;;;;;;;;;5125738;27;20047;-74
2024/02/05 13:24:08;;;;;;;7.03;3.53;;;;;;;;;;5124143;27;20046;-75
2024/02/05 13:26:51;;;;;;;6.85;3.30;;;;;;;;;;5125784;27;20047;-76
2024/02/05 13:29:26;;;;;;;6.63;3.70;;;;;;;;;;5124934;27;20050;-76
2024/02/05 13:31:58;;;;;;;18.15;4.63;;;;;;;;;;5125630;27;20415;-74
2024/02/05 13:34:29;;;;;;;5.65;3.50;;;;;;;;;;5124948;27;20050;-74
2024/02/05 13:37:01;;;;;;;6.03;3.25;;;;;;;;;;5125495;27;20047;-75
2024/02/05 13:39:33;;;;;;;8.27;3.47;;;;;;;;;;5123821;27;20047;-74
2024/02/05 13:42:06;;;;;;;6.25;3.63;;;;;;;;;;5125129;27;20509;-74
2024/02/05 13:44:36;;;;;;;9.48;3.53;;;;;;;;;;5123334;27;20055;-74
2024/02/05 13:47:08;;;;;;;13.27;3.70;;;;;;;;;;5124010;27;20066;-75
2024/02/05 13:49:39;;;;;;;13.63;3.92;;;;;;;;;;5124655;27;20078;-77
2024/02/05 13:52:19;;;;;;;9.02;3.40;;;;;;;;;;5123645;27;20070;-77
2024/02/05 13:54:49;;;;;;;8.45;3.78;;;;;;;;;;5125007;27;20042;-75
2024/02/05 13:57:20;;;;;;;6.38;3.72;;;;;;;;;;5124480;27;20062;-75
2024/02/05 13:59:51;;;;;;;6.05;4.07;;;;;;;;;;5125077;27;20406;-75
2024/02/05 14:02:21;;;;;;;11.73;3.60;;;;;;;;;;5124612;27;20047;-75
2024/02/05 14:04:52;;;;;;;7.45;3.50;;;;;;;;;;5124965;27;20056;-75
2024/02/05 14:07:24;;;;;;;5.93;3.47;;;;;;;;;;5123420;27;20058;-76
2024/02/05 14:09:55;;;;;;;7.47;3.88;;;;;;;;;;5114734;27;20047;-73
2024/02/05 14:12:26;;;;;;;7.68;3.88;;;;;;;;;;5103149;28;20039;-72
2024/02/05 14:14:57;;;;;;;5.47;3.50;;;;;;;;;;5111602;27;20923;-75
2024/02/05 14:17:29;;;;;;;4.50;4.00;;;;;;;;;;5124387;27;20371;-74
2024/02/05 14:20:02;;;;;;;7.18;3.60;;;;;;;;;;5114259;27;20043;-73
2024/02/05 14:22:32;;;;;;;5.93;3.53;;;;;;;;;;5118408;27;20051;-74
2024/02/05 14:25:02;;;;;;;5.88;3.55;;;;;;;;;;5124080;27;20051;-73
2024/02/05 14:27:36;;;;;;;6.10;3.45;;;;;;;;;;5124191;27;20039;-74
2024/02/05 14:30:08;;;;;;;8.40;3.65;;;;;;;;;;5123496;27;20047;-75
2024/02/05 14:32:39;;;;;;;7.15;3.70;;;;;;;;;;5123332;27;20043;-75
2024/02/05 14:35:10;;;;;;;6.68;3.65;;;;;;;;;;5123687;27;20047;-75
2024/02/05 14:37:40;;;;;;;8.05;3.90;;;;;;;;;;5124267;27;20417;-75
2024/02/05 14:40:11;;;;;;;8.68;3.45;;;;;;;;;;5123002;27;20140;-75
2024/02/05 14:42:42;;;;;;;11.02;4.22;;;;;;;;;;5123924;27;20054;-74
2024/02/05 14:45:13;;;;;;;5.95;3.50;;;;;;;;;;5123160;27;20051;-75
2024/02/05 14:47:45;;;;;;;9.43;3.80;;;;;;;;;;5124186;27;20061;-77
2024/02/05 14:50:17;;;;;;;5.72;3.45;;;;;;;;;;5123282;27;20077;-75
2024/02/05 14:52:50;;;;;;;5.43;3.80;;;;;;;;;;5123478;27;20043;-74
2024/02/05 14:55:21;;;;;;;9.00;3.88;;;;;;;;;;5123543;27;20050;-73
2024/02/05 14:57:56;;;;;;;7.53;4.13;;;;;;;;;;5123816;27;20058;-76
2024/02/05 15:00:27;;;;;;;6.50;3.95;;;;;;;;;;5123691;27;20047;-73
2024/02/05 15:02:58;;;;;;;8.25;3.70;;;;;;;;;;5123513;27;20050;-74
2024/02/05 15:05:28;;;;;;;6.68;3.80;;;;;;;;;;5122418;27;20121;-76
2024/02/05 15:08:00;;;;;;;6.85;3.80;;;;;;;;;;5123146;27;20042;-74